Time;durP1;ratioP1;P1;durP2;ratioP2;P2;SDS_P1;SDS_P2;PMS_P1;PMS_P2;Temp;Humidity;BMP_temperature;BMP_pressure;BME280_temperature;BME280_humidity;BME280_pressure;Samples;Min_cycle;Max_cycle;Signal;HPM_P1;HPM_P2
2022/08/09 00:00:46;;;;;;;;;;;;;;;32.30;26.25;102092.22;4426829;32;19997;-68
2022/08/09 00:03:11;;;;;;;;;;;;;;;32.37;26.75;102082.84;4430445;32;20335;-68
2022/08/09 00:05:37;;;;;;;;;;;;;;;32.20;27.20;102091.91;4427579;32;20022;-68
2022/08/09 00:08:02;;;;;;;;;;;;;;;32.27;27.01;102097.03;4426806;32;19992;-68
2022/08/09 00:10:30;;;;;;;;;;;;;;;32.23;27.01;102090.78;4433310;32;19957;-68
2022/08/09 00:12:55;;;;;;;;;;;;;;;32.28;26.99;102086.94;4414957;32;20295;-68
2022/08/09 00:15:21;;;;;;;;;;;;;;;32.08;27.16;102081.78;4428497;32;19993;-68
2022/08/09 00:17:46;;;;;;;;;;;;;;;31.98;27.51;102076.97;4429890;32;20010;-68
2022/08/09 00:20:12;;;;;;;;;;;;;;;31.99;27.73;102081.44;4431614;32;20407;-68
2022/08/09 00:22:37;;;;;;;;;;;;;;;32.18;27.56;102073.41;4429858;32;20045;-68
2022/08/09 00:25:03;;;;;;;;;;;;;;;31.99;27.78;102078.53;4429082;32;20001;-68
2022/08/09 00:27:29;;;;;;;;;;;;;;;32.10;27.75;102073.28;4427843;32;20000;-68
2022/08/09 00:29:55;;;;;;;;;;;;;;;32.12;27.76;102072.72;4429176;32;19992;-68
2022/08/09 00:32:21;;;;;;;;;;;;;;;32.20;27.59;102070.72;4429328;32;19941;-68
2022/08/09 00:34:47;;;;;;;;;;;;;;;31.55;28.34;102067.63;4429149;32;20005;-68
2022/08/09 00:37:13;;;;;;;;;;;;;;;31.48;28.58;102068.28;4432024;32;20066;-68
2022/08/09 00:39:39;;;;;;;;;;;;;;;31.43;28.67;102069.94;4430816;32;19989;-68
2022/08/09 00:42:05;;;;;;;;;;;;;;;31.35;28.63;102076.97;4432009;32;19991;-68
2022/08/09 00:44:31;;;;;;;;;;;;;;;31.41;28.71;102080.59;4430629;32;19985;-68
2022/08/09 00:46:56;;;;;;;;;;;;;;;31.56;28.49;102077.94;4429716;32;20363;-68
2022/08/09 00:49:22;;;;;;;;;;;;;;;31.34;28.81;102076.19;4427657;32;19992;-68
2022/08/09 00:51:48;;;;;;;;;;;;;;;31.37;28.78;102080.87;4428833;32;19976;-68
2022/08/09 00:54:13;;;;;;;;;;;;;;;31.13;28.98;102066.44;4430131;32;19992;-68
2022/08/09 00:56:39;;;;;;;;;;;;;;;31.17;28.86;102069.03;4427453;32;19950;-68
2022/08/09 00:59:04;;;;;;;;;;;;;;;31.12;29.05;102061.94;4430310;32;19952;-68
2022/08/09 01:01:34;;;;;;;;;;;;;;;31.01;29.00;102067.16;4431371;32;20390;-68
2022/08/09 01:04:05;;;;;;;;;;;;;;;30.90;29.20;102061.50;4429713;32;19949;-68
2022/08/09 01:06:50;;;;;;;;;;;;;;;30.64;29.31;102068.66;4427409;32;20109;-68
2022/08/09 01:09:36;;;;;;;;;;;;;;;30.73;29.20;102076.22;4428522;32;20394;-68
2022/08/09 01:12:06;;;;;;;;;;;;;;;30.72;29.28;102063.03;4429608;32;19989;-68
2022/08/09 01:14:35;;;;;;;;;;;;;;;30.66;29.36;102066.00;4427745;32;20399;-68
2022/08/09 01:17:07;;;;;;;;;;;;;;;30.55;29.67;102062.44;4431409;32;20325;-68
2022/08/09 01:25:17;;;;;;;;;;;;;;;30.98;29.15;102068.25;3951026;32;15725630;-68
2022/08/09 01:27:46;;;;;;;;;;;;;;;30.98;29.15;102068.25;4429009;32;20315;-68
2022/08/09 01:30:12;;;;;;;;;;;;;;;30.54;29.48;102064.59;4430496;32;20062;-68
2022/08/09 01:32:42;;;;;;;;;;;;;;;30.44;29.51;102065.50;4427303;32;20177;-68
2022/08/09 01:35:13;;;;;;;;;;;;;;;30.45;29.41;102067.06;4428351;32;20007;-68
2022/08/09 01:37:40;;;;;;;;;;;;;;;30.25;29.58;102053.81;4427705;32;19965;-68
2022/08/09 01:40:08;;;;;;;;;;;;;;;30.34;29.44;102047.66;4427846;32;20531;-68
2022/08/09 01:42:34;;;;;;;;;;;;;;;30.36;29.43;102061.63;4428291;32;19986;-68
2022/08/09 01:45:01;;;;;;;;;;;;;;;30.00;29.75;102069.66;4428787;32;20020;-68
2022/08/09 01:47:27;;;;;;;;;;;;;;;30.16;29.52;102065.78;4430309;32;19987;-68
2022/08/09 01:49:54;;;;;;;;;;;;;;;30.18;29.58;102065.22;4428446;32;20012;-68
2022/08/09 01:52:21;;;;;;;;;;;;;;;30.11;29.43;102066.66;4419172;32;19949;-68
2022/08/09 01:54:51;;;;;;;;;;;;;;;30.08;29.53;102073.53;4430884;32;20386;-68
2022/08/09 01:57:19;;;;;;;;;;;;;;;29.72;30.07;102074.94;4429638;32;20365;-68
2022/08/09 01:59:46;;;;;;;;;;;;;;;29.76;29.72;102075.44;4426033;32;20391;-68
2022/08/09 02:02:14;;;;;;;;;;;;;;;29.83;29.60;102074.06;4426394;32;20005;-68
2022/08/09 02:04:40;;;;;;;;;;;;;;;29.78;29.49;102069.88;4426411;32;20252;-68
2022/08/09 02:07:08;;;;;;;;;;;;;;;29.85;29.60;102072.19;4432908;32;20001;-68
2022/08/09 02:09:36;;;;;;;;;;;;;;;29.80;29.63;102078.84;4430259;32;20377;-68
2022/08/09 02:12:03;;;;;;;;;;;;;;;29.85;29.75;102075.06;4427174;32;20079;-68
2022/08/09 02:14:29;;;;;;;;;;;;;;;29.82;29.80;102084.09;4430329;32;19957;-68
2022/08/09 02:16:56;;;;;;;;;;;;;;;29.84;29.72;102088.03;4429303;32;19991;-68
2022/08/09 02:19:22;;;;;;;;;;;;;;;29.81;29.89;102082.50;4426945;32;20021;-68
2022/08/09 02:21:50;;;;;;;;;;;;;;;29.55;30.30;102083.00;4428010;32;19971;-68
2022/08/09 02:24:19;;;;;;;;;;;;;;;29.58;30.05;102078.22;4428271;32;19946;-68
2022/08/09 02:26:46;;;;;;;;;;;;;;;29.65;30.08;102078.44;4425381;32;20008;-68
2022/08/09 02:29:16;;;;;;;;;;;;;;;29.77;29.90;102074.13;4425352;32;20384;-68
2022/08/09 02:31:43;;;;;;;;;;;;;;;29.56;30.37;102067.16;4426643;32;19997;-68
2022/08/09 02:34:11;;;;;;;;;;;;;;;29.29;30.54;102073.19;4425847;32;20016;-68
2022/08/09 02:36:39;;;;;;;;;;;;;;;29.10;30.69;102073.03;4417614;32;20009;-68
2022/08/09 02:39:06;;;;;;;;;;;;;;;29.35;29.82;102063.09;4419174;32;20418;-68
2022/08/09 02:41:36;;;;;;;;;;;;;;;28.89;30.71;102063.91;4419724;32;20308;-68
2022/08/09 02:44:04;;;;;;;;;;;;;;;28.87;30.77;102062.88;4418390;32;20039;-68
2022/08/09 02:46:32;;;;;;;;;;;;;;;28.97;30.55;102059.09;4419560;32;20336;-68
2022/08/09 02:49:01;;;;;;;;;;;;;;;28.89;30.59;102054.41;4417245;32;19957;-68
2022/08/09 02:51:30;;;;;;;;;;;;;;;28.93;30.38;102052.03;4418021;32;21700;-68
2022/08/09 02:53:57;;;;;;;;;;;;;;;28.91;30.10;102063.38;4416581;32;20040;-68
2022/08/09 02:56:24;;;;;;;;;;;;;;;28.81;30.17;102068.66;4418880;32;19957;-68
2022/08/09 02:58:51;;;;;;;;;;;;;;;28.85;30.00;102071.31;4417414;32;20004;-68
2022/08/09 03:01:18;;;;;;;;;;;;;;;28.84;29.87;102067.59;4415813;32;20335;-68
2022/08/09 03:03:47;;;;;;;;;;;;;;;28.71;30.09;102075.31;4417091;32;20008;-68
2022/08/09 03:06:14;;;;;;;;;;;;;;;28.68;30.00;102076.38;4418028;32;20627;-68
2022/08/09 03:08:43;;;;;;;;;;;;;;;28.52;29.93;102077.25;4415673;32;20300;-68
2022/08/09 03:11:09;;;;;;;;;;;;;;;28.60;29.67;102070.34;4418750;32;19989;-68
2022/08/09 03:13:37;;;;;;;;;;;;;;;28.63;29.82;102072.19;4419057;32;19979;-68
2022/08/09 03:16:06;;;;;;;;;;;;;;;28.65;29.73;102068.75;4419069;32;20017;-68
2022/08/09 03:18:35;;;;;;;;;;;;;;;28.55;29.66;102070.37;4416429;32;19957;-68
2022/08/09 03:21:04;;;;;;;;;;;;;;;28.69;29.37;102078.75;4418294;32;20451;-68
2022/08/09 03:23:31;;;;;;;;;;;;;;;28.63;29.47;102080.87;4417173;32;20192;-68
2022/08/09 03:26:00;;;;;;;;;;;;;;;28.45;29.59;102078.59;4404057;32;19962;-68
2022/08/09 03:28:31;;;;;;;;;;;;;;;28.46;29.77;102071.47;4415328;32;19965;-68
2022/08/09 03:30:59;;;;;;;;;;;;;;;28.47;29.81;102075.16;4419156;32;19993;-68
2022/08/09 03:33:29;;;;;;;;;;;;;;;28.45;29.84;102072.81;4418733;32;19968;-68
2022/08/09 03:35:58;;;;;;;;;;;;;;;28.51;30.02;102072.78;4418494;32;20433;-68
2022/08/09 03:38:24;;;;;;;;;;;;;;;28.47;30.11;102075.94;4416836;32;20025;-68
2022/08/09 03:40:49;;;;;;;;;;;;;;;28.58;29.75;102073.00;4416975;32;20362;-68
2022/08/09 03:43:15;;;;;;;;;;;;;;;28.32;30.16;102075.44;4417646;32;19957;-68
2022/08/09 03:45:40;;;;;;;;;;;;;;;28.51;29.90;102087.25;4418147;32;19967;-68
2022/08/09 03:48:05;;;;;;;;;;;;;;;28.45;30.09;102080.66;4415815;32;19989;-68
2022/08/09 03:50:33;;;;;;;;;;;;;;;28.44;30.20;102087.78;4417749;32;20406;-68
2022/08/09 03:53:01;;;;;;;;;;;;;;;28.18;30.82;102081.53;4419453;32;19978;-68
2022/08/09 03:55:26;;;;;;;;;;;;;;;28.13;30.84;102085.25;4416326;32;20641;-68
2022/08/09 03:57:52;;;;;;;;;;;;;;;28.19;30.45;102089.69;4418174;32;21352;-68
2022/08/09 04:00:18;;;;;;;;;;;;;;;28.12;30.43;102083.66;4414860;32;20755;-68
2022/08/09 04:02:45;;;;;;;;;;;;;;;28.08;30.47;102095.53;4419364;32;20008;-68
2022/08/09 04:05:10;;;;;;;;;;;;;;;28.00;30.38;102087.87;4416386;32;20020;-68
2022/08/09 04:07:36;;;;;;;;;;;;;;;28.06;30.27;102089.47;4418235;32;20041;-68
2022/08/09 04:10:02;;;;;;;;;;;;;;;27.69;30.33;102085.25;4416922;32;20242;-68
2022/08/09 04:12:36;;;;;;;;;;;;;;;27.75;30.40;102091.81;4416148;32;19949;-68
2022/08/09 04:15:01;;;;;;;;;;;;;;;28.04;30.21;102094.22;4416066;32;19981;-68
2022/08/09 04:17:28;;;;;;;;;;;;;;;27.99;30.00;102104.47;4416209;32;19962;-68
2022/08/09 04:19:54;;;;;;;;;;;;;;;27.94;30.19;102102.38;4416478;32;20493;-68
2022/08/09 04:22:19;;;;;;;;;;;;;;;27.86;30.11;102095.56;4420892;32;20357;-68
2022/08/09 04:24:45;;;;;;;;;;;;;;;27.94;29.94;102095.78;4417693;32;20377;-68
2022/08/09 04:27:10;;;;;;;;;;;;;;;28.00;29.99;102084.97;4416147;32;19969;-68
2022/08/09 04:29:36;;;;;;;;;;;;;;;27.97;29.95;102088.94;4416257;32;20492;-68
2022/08/09 04:32:02;;;;;;;;;;;;;;;27.74;30.19;102096.84;4416984;32;19981;-68
2022/08/09 04:34:28;;;;;;;;;;;;;;;27.98;30.05;102102.88;4417998;32;19994;-68
2022/08/09 04:36:54;;;;;;;;;;;;;;;27.83;30.11;102098.66;4418729;32;19996;-68
2022/08/09 04:39:19;;;;;;;;;;;;;;;27.85;30.13;102090.25;4418322;32;19949;-68
2022/08/09 04:41:45;;;;;;;;;;;;;;;27.81;30.23;102092.59;4417535;32;19958;-68
2022/08/09 04:44:11;;;;;;;;;;;;;;;27.64;30.15;102097.63;4417532;32;20339;-68
2022/08/09 04:46:37;;;;;;;;;;;;;;;27.66;30.17;102094.97;4417797;32;19968;-68
2022/08/09 04:49:03;;;;;;;;;;;;;;;27.60;30.22;102094.19;4414716;32;19988;-68
2022/08/09 04:51:28;;;;;;;;;;;;;;;27.73;30.11;102095.25;4416783;32;19971;-68
2022/08/09 04:53:54;;;;;;;;;;;;;;;27.79;30.31;102101.03;4415209;32;20248;-68
2022/08/09 04:56:19;;;;;;;;;;;;;;;27.77;30.69;102110.25;4416470;32;20001;-68
2022/08/09 04:58:45;;;;;;;;;;;;;;;27.64;30.82;102114.97;4417503;32;20556;-68
2022/08/09 05:01:11;;;;;;;;;;;;;;;27.61;30.97;102107.34;4413761;32;20335;-68
2022/08/09 05:03:37;;;;;;;;;;;;;;;27.65;30.22;102108.66;4416261;32;20012;-68
2022/08/09 05:06:02;;;;;;;;;;;;;;;27.46;30.66;102113.41;4416266;32;19961;-68
2022/08/09 05:08:28;;;;;;;;;;;;;;;27.61;30.00;102116.03;4413512;32;20465;-68
2022/08/09 05:10:53;;;;;;;;;;;;;;;27.80;29.90;102111.28;4414738;32;19945;-68
2022/08/09 05:13:19;;;;;;;;;;;;;;;27.74;29.67;102105.50;4418244;32;19954;-68
2022/08/09 05:15:45;;;;;;;;;;;;;;;27.88;29.71;102104.47;4415322;32;20011;-68
2022/08/09 05:18:10;;;;;;;;;;;;;;;28.06;29.62;102100.25;4414981;32;19968;-68
2022/08/09 05:20:36;;;;;;;;;;;;;;;27.97;29.88;102101.31;4416154;32;19984;-68
2022/08/09 05:23:01;;;;;;;;;;;;;;;28.04;30.02;102100.75;4413914;32;19976;-68
2022/08/09 05:25:27;;;;;;;;;;;;;;;28.18;30.01;102102.59;4415704;32;19968;-68
2022/08/09 05:27:52;;;;;;;;;;;;;;;28.13;29.77;102109.16;4413940;32;20092;-68
2022/08/09 05:30:18;;;;;;;;;;;;;;;28.12;30.04;102106.81;4419392;32;20358;-68
2022/08/09 05:32:44;;;;;;;;;;;;;;;28.12;29.49;102101.81;4416991;32;20410;-68
2022/08/09 05:35:10;;;;;;;;;;;;;;;27.88;29.20;102103.66;4414186;32;20033;-68
2022/08/09 05:37:36;;;;;;;;;;;;;;;27.77;29.37;102107.34;4413960;32;20921;-68
2022/08/09 05:40:01;;;;;;;;;;;;;;;28.03;29.37;102110.78;4417959;32;20008;-68
2022/08/09 05:42:27;;;;;;;;;;;;;;;28.11;29.06;102114.72;4417563;32;20306;-68
2022/08/09 05:44:53;;;;;;;;;;;;;;;28.27;29.00;102113.09;4415777;32;19957;-68
2022/08/09 05:47:20;;;;;;;;;;;;;;;28.18;29.09;102104.69;4417909;32;20016;-68
2022/08/09 05:49:45;;;;;;;;;;;;;;;28.25;28.65;102110.72;4417054;32;20420;-68
2022/08/09 05:52:11;;;;;;;;;;;;;;;27.86;28.69;102106.31;4418865;32;19949;-68
2022/08/09 05:54:38;;;;;;;;;;;;;;;28.32;28.20;102110.19;4417038;32;20021;-68
2022/08/09 05:57:03;;;;;;;;;;;;;;;28.45;28.12;102115.44;4419656;32;20613;-68
2022/08/09 05:59:29;;;;;;;;;;;;;;;28.30;28.28;102117.81;4415464;32;20338;-68
2022/08/09 06:01:54;;;;;;;;;;;;;;;28.55;27.96;102122.53;4417910;32;19941;-68
2022/08/09 06:04:20;;;;;;;;;;;;;;;28.71;27.92;102133.25;4415461;32;20041;-68
2022/08/09 06:06:45;;;;;;;;;;;;;;;28.67;28.19;102136.44;4413036;32;19964;-68
2022/08/09 06:09:10;;;;;;;;;;;;;;;29.03;27.70;102140.25;4415343;32;20015;-68
2022/08/09 06:11:36;;;;;;;;;;;;;;;29.20;27.48;102146.00;4417690;32;20016;-68
2022/08/09 06:14:02;;;;;;;;;;;;;;;29.23;27.50;102142.78;4419256;32;20020;-68
2022/08/09 06:16:28;;;;;;;;;;;;;;;29.41;27.33;102145.06;4419284;32;20411;-68
2022/08/09 06:18:53;;;;;;;;;;;;;;;29.42;27.50;102142.94;4418536;32;19949;-68
2022/08/09 06:21:19;;;;;;;;;;;;;;;29.68;27.25;102146.22;4421055;32;19949;-68
2022/08/09 06:23:46;;;;;;;;;;;;;;;29.74;27.36;102141.94;4419708;32;20000;-68
2022/08/09 06:26:12;;;;;;;;;;;;;;;29.83;27.09;102155.31;4421145;32;19954;-68
2022/08/09 06:28:37;;;;;;;;;;;;;;;29.95;27.03;102151.00;4418221;32;20033;-68
2022/08/09 06:31:03;;;;;;;;;;;;;;;29.98;26.76;102147.81;4420055;32;20045;-68
2022/08/09 06:33:28;;;;;;;;;;;;;;;30.17;26.91;102139.97;4414983;32;20016;-68
2022/08/09 06:35:54;;;;;;;;;;;;;;;30.27;26.86;102140.41;4417326;32;20016;-68
2022/08/09 06:38:19;;;;;;;;;;;;;;;30.34;26.54;102160.19;4418619;32;20315;-68
2022/08/09 06:40:44;;;;;;;;;;;;;;;30.47;25.98;102155.25;4415459;32;20344;-68
2022/08/09 06:43:12;;;;;;;;;;;;;;;30.49;26.17;102155.50;4418632;32;19994;-68
2022/08/09 06:45:38;;;;;;;;;;;;;;;30.75;25.59;102152.06;4404534;32;20013;-68
2022/08/09 06:48:03;;;;;;;;;;;;;;;30.84;25.48;102155.37;4417505;32;19989;-68
2022/08/09 06:50:30;;;;;;;;;;;;;;;31.04;25.48;102154.06;4414981;32;20380;-68
2022/08/09 06:52:55;;;;;;;;;;;;;;;31.12;25.48;102160.03;4420062;32;19953;-68
2022/08/09 06:55:23;;;;;;;;;;;;;;;31.19;25.17;102157.31;4417645;32;20682;-68
2022/08/09 06:57:48;;;;;;;;;;;;;;;31.17;24.89;102162.88;4414911;32;20293;-68
2022/08/09 07:00:14;;;;;;;;;;;;;;;31.41;24.86;102164.97;4415577;32;20000;-68
2022/08/09 07:02:39;;;;;;;;;;;;;;;31.50;24.84;102156.59;4421194;32;19989;-69
2022/08/09 07:05:05;;;;;;;;;;;;;;;31.52;24.62;102162.66;4415838;32;20310;-67
2022/08/09 07:07:31;;;;;;;;;;;;;;;31.60;24.53;102172.31;4417379;32;20019;-69
2022/08/09 07:09:57;;;;;;;;;;;;;;;31.72;24.23;102170.03;4419441;32;19975;-67
2022/08/09 07:12:26;;;;;;;;;;;;;;;31.91;24.07;102171.56;4421480;32;20039;-67
2022/08/09 07:14:51;;;;;;;;;;;;;;;31.82;24.25;102165.41;4416927;32;20977;-69
2022/08/09 07:17:18;;;;;;;;;;;;;;;31.95;24.17;102166.25;4415622;32;19965;-68
2022/08/09 07:19:44;;;;;;;;;;;;;;;32.29;23.95;102169.34;4418637;32;20013;-68
2022/08/09 07:22:09;;;;;;;;;;;;;;;32.39;23.65;102168.38;4418354;32;19999;-68
2022/08/09 07:24:35;;;;;;;;;;;;;;;32.47;23.52;102172.19;4416519;32;19961;-68
2022/08/09 07:27:01;;;;;;;;;;;;;;;32.29;23.79;102178.87;4416657;32;19983;-68
2022/08/09 07:29:28;;;;;;;;;;;;;;;32.50;23.37;102187.78;4418222;32;20001;-68
2022/08/09 07:31:53;;;;;;;;;;;;;;;32.75;22.91;102188.34;4417106;32;20444;-68
2022/08/09 07:34:19;;;;;;;;;;;;;;;32.81;22.93;102186.91;4414775;32;20237;-68
2022/08/09 07:36:45;;;;;;;;;;;;;;;32.99;22.61;102182.31;4415508;32;20017;-68
2022/08/09 07:39:12;;;;;;;;;;;;;;;32.76;22.72;102181.94;4416718;32;19953;-68
2022/08/09 07:41:38;;;;;;;;;;;;;;;32.73;22.59;102182.31;4419760;32;20008;-68
2022/08/09 07:44:03;;;;;;;;;;;;;;;33.42;21.83;102185.63;4417216;32;20018;-68
2022/08/09 07:46:29;;;;;;;;;;;;;;;33.61;21.59;102186.22;4416961;32;19957;-68
2022/08/09 07:48:55;;;;;;;;;;;;;;;33.64;22.11;102188.03;4417205;32;19972;-68
2022/08/09 07:51:20;;;;;;;;;;;;;;;33.74;21.93;102181.12;4414225;32;20516;-68
2022/08/09 07:53:47;;;;;;;;;;;;;;;33.91;21.56;102184.47;4414120;32;20350;-68
2022/08/09 07:56:12;;;;;;;;;;;;;;;33.76;21.61;102180.56;4416450;32;20001;-68
2022/08/09 07:58:38;;;;;;;;;;;;;;;33.80;21.45;102186.81;4414580;32;19973;-68
2022/08/09 08:01:03;;;;;;;;;;;;;;;34.15;20.82;102186.25;4417819;32;19993;-68
2022/08/09 08:03:29;;;;;;;;;;;;;;;34.11;20.64;102182.87;4417294;32;19953;-68
2022/08/09 08:05:54;;;;;;;;;;;;;;;34.24;20.85;102174.06;4415140;32;20004;-68
2022/08/09 08:08:20;;;;;;;;;;;;;;;34.24;20.82;102174.06;4413963;32;20000;-68
2022/08/09 08:10:46;;;;;;;;;;;;;;;34.18;20.76;102165.41;4414605;32;20015;-68
2022/08/09 08:13:11;;;;;;;;;;;;;;;34.42;20.47;102175.97;4416744;32;20514;-68
2022/08/09 08:15:37;;;;;;;;;;;;;;;34.53;20.06;102180.72;4413559;32;19961;-68
2022/08/09 08:18:03;;;;;;;;;;;;;;;34.51;20.06;102169.59;4416937;32;19949;-68
2022/08/09 08:20:29;;;;;;;;;;;;;;;34.87;19.75;102164.59;4413961;32;19997;-68
2022/08/09 08:22:55;;;;;;;;;;;;;;;34.90;19.49;102175.16;4416466;32;19973;-68
2022/08/09 08:25:20;;;;;;;;;;;;;;;35.10;19.28;102177.22;4414962;32;20083;-68
2022/08/09 08:27:46;;;;;;;;;;;;;;;35.19;18.92;102179.59;4412781;32;20057;-68
2022/08/09 08:30:13;;;;;;;;;;;;;;;35.46;18.56;102180.88;4413405;32;20033;-68
2022/08/09 08:32:39;;;;;;;;;;;;;;;35.51;18.25;102182.87;4416691;32;19997;-68
2022/08/09 08:35:05;;;;;;;;;;;;;;;35.62;17.97;102170.78;4414521;32;19989;-68
2022/08/09 08:37:31;;;;;;;;;;;;;;;35.42;18.20;102167.97;4414723;32;19961;-68
2022/08/09 08:39:56;;;;;;;;;;;;;;;36.02;17.82;102177.72;4414666;32;20012;-68
2022/08/09 08:42:22;;;;;;;;;;;;;;;35.64;18.08;102185.63;4417468;32;19996;-68
2022/08/09 08:44:51;;;;;;;;;;;;;;;36.08;17.83;102180.47;4416077;32;20354;-68
2022/08/09 08:47:17;;;;;;;;;;;;;;;36.17;17.85;102174.03;4415019;32;19957;-68
2022/08/09 08:49:43;;;;;;;;;;;;;;;36.62;17.46;102182.03;4413508;32;20355;-68
2022/08/09 08:52:09;;;;;;;;;;;;;;;36.89;17.47;102181.03;4419661;32;19949;-68
2022/08/09 08:54:34;;;;;;;;;;;;;;;37.25;17.20;102180.72;4414911;32;19998;-67
2022/08/09 08:57:01;;;;;;;;;;;;;;;37.32;17.14;102183.63;4417723;32;20291;-68
2022/08/09 08:59:27;;;;;;;;;;;;;;;38.02;16.74;102194.41;4417467;32;20049;-68
2022/08/09 09:01:54;;;;;;;;;;;;;;;38.60;16.20;102191.59;4416018;32;19972;-67
2022/08/09 09:04:21;;;;;;;;;;;;;;;38.81;16.01;102183.16;4415550;32;20166;-69
2022/08/09 09:06:47;;;;;;;;;;;;;;;38.69;16.14;102184.25;4416766;32;19985;-67
2022/08/09 09:09:14;;;;;;;;;;;;;;;39.17;16.27;102179.63;4414890;32;19989;-67
2022/08/09 09:11:40;;;;;;;;;;;;;;;39.54;15.98;102187.19;4412039;32;20253;-67
2022/08/09 09:14:10;;;;;;;;;;;;;;;40.08;15.52;102191.69;4419737;32;19996;-67
2022/08/09 09:16:35;;;;;;;;;;;;;;;39.96;15.68;102189.94;4416353;32;19993;-67
2022/08/09 09:19:03;;;;;;;;;;;;;;;40.68;15.24;102186.94;4412700;32;20015;-67
2022/08/09 09:21:28;;;;;;;;;;;;;;;40.32;15.51;102192.87;4418923;32;19945;-67
2022/08/09 09:23:54;;;;;;;;;;;;;;;39.76;15.94;102185.28;4418302;32;20071;-67
2022/08/09 09:26:21;;;;;;;;;;;;;;;40.00;15.84;102196.91;4415755;32;20344;-67
2022/08/09 09:28:47;;;;;;;;;;;;;;;40.80;15.16;102196.75;4411812;32;19973;-67
2022/08/09 09:31:14;;;;;;;;;;;;;;;41.10;15.04;102193.22;4417066;32;20022;-68
2022/08/09 09:33:40;;;;;;;;;;;;;;;41.13;14.99;102194.91;4415909;32;19968;-67
2022/08/09 09:36:06;;;;;;;;;;;;;;;40.98;14.95;102195.22;4415682;32;20261;-67
2022/08/09 09:38:55;;;;;;;;;;;;;;;41.63;14.55;102192.87;4414772;32;19993;-68
2022/08/09 09:43:58;;;;;;;;;;;;;;;42.23;14.25;102184.72;3951854;32;15724539;-68
2022/08/09 09:46:28;;;;;;;;;;;;;;;42.23;14.25;102184.72;4429376;32;19961;-68
2022/08/09 09:48:55;;;;;;;;;;;;;;;41.66;14.60;102191.62;4425258;32;20076;-68
2022/08/09 09:51:21;;;;;;;;;;;;;;;41.54;14.67;102181.06;4426711;32;19999;-68
2022/08/09 09:54:01;;;;;;;;;;;;;;;41.65;14.70;102181.19;4428590;32;20335;-69
2022/08/09 09:56:30;;;;;;;;;;;;;;;41.59;14.72;102183.69;4430565;32;19961;-68
2022/08/09 09:58:56;;;;;;;;;;;;;;;42.00;14.56;102179.41;4426483;32;20001;-68
2022/08/09 10:01:22;;;;;;;;;;;;;;;42.40;14.22;102184.50;4430438;32;19957;-68
2022/08/09 10:03:48;;;;;;;;;;;;;;;42.09;14.39;102180.75;4428499;32;19994;-68
2022/08/09 10:06:14;;;;;;;;;;;;;;;42.66;14.04;102181.22;4426991;32;19957;-68
2022/08/09 10:08:41;;;;;;;;;;;;;;;42.68;14.00;102180.59;4428896;32;19976;-68
2022/08/09 10:11:26;;;;;;;;;;;;;;;42.96;13.81;102180.41;4430384;32;19968;-69
2022/08/09 10:13:52;;;;;;;;;;;;;;;43.26;13.61;102175.00;4430820;32;20379;-68
2022/08/09 10:16:37;;;;;;;;;;;;;;;42.40;14.17;102176.41;4429711;32;20410;-68
2022/08/09 10:19:05;;;;;;;;;;;;;;;42.75;14.07;102173.69;4428461;32;20019;-68
2022/08/09 10:21:31;;;;;;;;;;;;;;;42.66;14.12;102171.53;4426751;32;19980;-68
2022/08/09 10:24:00;;;;;;;;;;;;;;;43.29;13.60;102167.78;4427052;32;20553;-68
2022/08/09 10:26:26;;;;;;;;;;;;;;;43.66;13.38;102168.81;4430498;32;19961;-68
2022/08/09 10:28:52;;;;;;;;;;;;;;;43.83;13.29;102165.50;4428123;32;20068;-68
2022/08/09 10:31:19;;;;;;;;;;;;;;;44.04;13.26;102156.50;4431217;32;20012;-68
2022/08/09 10:33:45;;;;;;;;;;;;;;;42.96;13.79;102162.63;4428502;32;20331;-68
2022/08/09 10:36:11;;;;;;;;;;;;;;;43.49;13.45;102161.03;4426947;32;20092;-68
2022/08/09 10:38:38;;;;;;;;;;;;;;;43.64;13.23;102160.56;4428040;32;19985;-68
2022/08/09 10:41:04;;;;;;;;;;;;;;;44.48;12.74;102156.38;4426665;32;19989;-68
2022/08/09 10:43:30;;;;;;;;;;;;;;;43.57;13.06;102152.69;4427972;32;19961;-68
2022/08/09 10:46:00;;;;;;;;;;;;;;;43.89;12.78;102157.78;4427584;32;19965;-68
2022/08/09 10:48:32;;;;;;;;;;;;;;;43.86;12.56;102164.25;4428154;32;20361;-68
2022/08/09 10:56:29;;;;;;;;;;;;;;;45.33;11.38;102159.34;3952102;32;15721359;-67
2022/08/09 10:58:56;;;;;;;;;;;;;;;45.33;11.38;102159.34;4432223;32;20009;-69
2022/08/09 11:01:38;;;;;;;;;;;;;;;44.49;11.49;102154.94;4430454;32;19957;-68
2022/08/09 11:06:49;;;;;;;;;;;;;;;44.39;11.81;102163.22;3950219;32;15724623;-68
2022/08/09 11:09:16;;;;;;;;;;;;;;;44.39;11.81;102163.22;4427469;32;19971;-69
2022/08/09 11:14:34;;;;;;;;;;;;;;;44.44;11.01;102156.88;3950458;32;15722591;-67
2022/08/09 11:17:00;;;;;;;;;;;;;;;44.44;11.01;102156.88;4430303;32;19992;-69
2022/08/09 11:19:46;;;;;;;;;;;;;;;44.07;11.21;102150.06;4427766;32;19985;-67
2022/08/09 11:22:12;;;;;;;;;;;;;;;44.74;10.77;102143.16;4431332;32;20001;-68
2022/08/09 11:24:58;;;;;;;;;;;;;;;44.94;10.51;102143.59;4430359;32;20078;-68
2022/08/09 11:27:27;;;;;;;;;;;;;;;45.67;10.17;102138.31;4427967;32;19946;-68
2022/08/09 11:29:54;;;;;;;;;;;;;;;45.13;10.12;102143.28;4428019;32;20016;-67
2022/08/09 11:32:39;;;;;;;;;;;;;;;44.97;10.13;102134.16;4430671;32;20414;-67
2022/08/09 11:35:25;;;;;;;;;;;;;;;44.24;9.65;102134.84;4430138;32;19945;-68
2022/08/09 11:37:51;;;;;;;;;;;;;;;43.62;10.04;102133.75;4428650;32;19953;-68
2022/08/09 11:40:32;;;;;;;;;;;;;;;44.85;9.50;102140.12;4427849;32;20004;-68
2022/08/09 11:42:59;;;;;;;;;;;;;;;45.56;9.14;102129.47;4430965;32;19993;-68
2022/08/09 11:45:28;;;;;;;;;;;;;;;46.53;8.47;102131.25;4429526;32;19949;-69
2022/08/09 11:47:56;;;;;;;;;;;;;;;47.06;8.05;102131.03;4427547;32;19949;-69
2022/08/09 11:50:23;;;;;;;;;;;;;;;47.44;7.67;102130.75;4426128;32;20003;-69
2022/08/09 11:55:41;;;;;;;;;;;;;;;47.10;8.60;102122.28;3956304;32;15722565;-67
2022/08/09 11:58:27;;;;;;;;;;;;;;;47.10;8.60;102122.28;4433783;32;20033;-68
2022/08/09 12:00:54;;;;;;;;;;;;;;;48.74;7.82;102124.25;4435065;32;20197;-68
2022/08/09 12:03:22;;;;;;;;;;;;;;;49.04;7.71;102122.56;4434459;32;20027;-68
2022/08/09 12:05:49;;;;;;;;;;;;;;;49.57;7.42;102117.31;4435530;32;19967;-68
2022/08/09 12:08:16;;;;;;;;;;;;;;;49.43;7.40;102125.72;4434053;32;19972;-68
2022/08/09 12:10:44;;;;;;;;;;;;;;;48.87;7.62;102125.53;4434155;32;19958;-68
2022/08/09 12:13:10;;;;;;;;;;;;;;;48.13;7.79;102113.97;4435837;32;20070;-68
2022/08/09 12:15:36;;;;;;;;;;;;;;;48.71;7.59;102115.88;4434687;32;20008;-68
2022/08/09 12:18:01;;;;;;;;;;;;;;;48.36;7.55;102112.78;4433075;32;19957;-68
2022/08/09 12:20:29;;;;;;;;;;;;;;;49.04;7.23;102110.59;4435650;32;19957;-68
2022/08/09 12:22:58;;;;;;;;;;;;;;;49.08;7.25;102113.78;4436483;32;20044;-68
2022/08/09 12:25:25;;;;;;;;;;;;;;;49.26;7.20;102110.78;4433879;32;19996;-68
2022/08/09 12:28:10;;;;;;;;;;;;;;;49.28;7.31;102123.59;4434604;32;20004;-69
2022/08/09 12:30:36;;;;;;;;;;;;;;;49.59;6.92;102114.41;4432921;32;20220;-68
2022/08/09 12:33:03;;;;;;;;;;;;;;;50.37;6.55;102121.94;4433935;32;20017;-68
2022/08/09 12:35:29;;;;;;;;;;;;;;;49.76;6.88;102116.62;4433648;32;19961;-68
2022/08/09 12:37:55;;;;;;;;;;;;;;;48.81;7.29;102117.06;4432506;32;20348;-68
2022/08/09 12:40:26;;;;;;;;;;;;;;;49.02;6.89;102119.50;4434619;32;19960;-68
2022/08/09 12:42:52;;;;;;;;;;;;;;;48.58;7.16;102108.56;4434287;32;19956;-69
2022/08/09 12:45:20;;;;;;;;;;;;;;;48.79;7.03;102110.22;4435877;32;20407;-68
2022/08/09 12:47:46;;;;;;;;;;;;;;;49.52;6.69;102108.84;4433784;32;19986;-68
2022/08/09 12:50:19;;;;;;;;;;;;;;;49.58;6.72;102106.88;4434073;32;20303;-68
2022/08/09 12:52:46;;;;;;;;;;;;;;;49.52;6.75;102106.66;4434808;32;20064;-68
2022/08/09 12:55:22;;;;;;;;;;;;;;;49.14;6.90;102102.03;4433730;32;19996;-68
2022/08/09 12:57:48;;;;;;;;;;;;;;;48.60;7.33;102104.91;4434292;32;20099;-68
2022/08/09 13:02:54;;;;;;;;;;;;;;;47.17;8.43;102094.34;3949801;32;15724251;-68